sensor_id;sensor_type;location;lat;lon;timestamp;P1;durP1;ratioP1;P2;durP2;ratioP2
24585;SDS011;12743;52.262;6.172;2023-03-24T00:00:58;8.70;;;2.15;;
24585;SDS011;12743;52.262;6.172;2023-03-24T00:03:29;7.60;;;1.65;;
24585;SDS011;12743;52.262;6.172;2023-03-24T00:05:57;11.25;;;2.60;;
24585;SDS011;12743;52.262;6.172;2023-03-24T00:08:27;7.85;;;1.90;;
24585;SDS011;12743;52.262;6.172;2023-03-24T00:11:02;5.53;;;1.60;;
24585;SDS011;12743;52.262;6.172;2023-03-24T00:13:32;9.00;;;2.33;;
24585;SDS011;12743;52.262;6.172;2023-03-24T00:16:05;6.25;;;1.70;;
24585;SDS011;12743;52.262;6.172;2023-03-24T00:18:38;6.13;;;1.65;;
24585;SDS011;12743;52.262;6.172;2023-03-24T00:21:06;6.55;;;2.08;;
24585;SDS011;12743;52.262;6.172;2023-03-24T00:23:34;7.30;;;1.93;;
24585;SDS011;12743;52.262;6.172;2023-03-24T00:26:05;9.57;;;2.05;;
24585;SDS011;12743;52.262;6.172;2023-03-24T00:28:34;5.35;;;1.92;;
24585;SDS011;12743;52.262;6.172;2023-03-24T00:31:03;9.40;;;3.20;;
24585;SDS011;12743;52.262;6.172;2023-03-24T00:33:31;7.57;;;2.05;;
24585;SDS011;12743;52.262;6.172;2023-03-24T00:36:04;8.90;;;2.30;;
24585;SDS011;12743;52.262;6.172;2023-03-24T00:38:33;7.68;;;2.65;;
24585;SDS011;12743;52.262;6.172;2023-03-24T00:41:00;7.68;;;2.30;;
24585;SDS011;12743;52.262;6.172;2023-03-24T00:43:28;9.25;;;2.45;;
24585;SDS011;12743;52.262;6.172;2023-03-24T00:45:58;7.45;;;2.28;;
24585;SDS011;12743;52.262;6.172;2023-03-24T00:48:34;8.70;;;2.80;;
24585;SDS011;12743;52.262;6.172;2023-03-24T00:51:02;8.98;;;2.55;;
24585;SDS011;12743;52.262;6.172;2023-03-24T00:53:30;8.23;;;2.50;;
24585;SDS011;12743;52.262;6.172;2023-03-24T00:55:57;7.30;;;2.83;;
24585;SDS011;12743;52.262;6.172;2023-03-24T00:58:25;7.63;;;2.90;;
24585;SDS011;12743;52.262;6.172;2023-03-24T01:00:57;9.07;;;2.37;;
24585;SDS011;12743;52.262;6.172;2023-03-24T01:03:25;9.63;;;3.25;;
24585;SDS011;12743;52.262;6.172;2023-03-24T01:05:58;7.55;;;2.28;;
24585;SDS011;12743;52.262;6.172;2023-03-24T01:08:31;8.15;;;2.53;;
24585;SDS011;12743;52.262;6.172;2023-03-24T01:10:58;7.82;;;2.75;;
24585;SDS011;12743;52.262;6.172;2023-03-24T01:13:27;8.07;;;2.60;;
24585;SDS011;12743;52.262;6.172;2023-03-24T01:15:55;7.18;;;2.60;;
24585;SDS011;12743;52.262;6.172;2023-03-24T01:18:25;6.20;;;2.70;;
24585;SDS011;12743;52.262;6.172;2023-03-24T01:20:53;7.32;;;3.08;;
24585;SDS011;12743;52.262;6.172;2023-03-24T01:23:20;7.25;;;2.50;;
24585;SDS011;12743;52.262;6.172;2023-03-24T01:25:49;8.63;;;3.20;;
24585;SDS011;12743;52.262;6.172;2023-03-24T01:28:18;9.68;;;2.80;;
24585;SDS011;12743;52.262;6.172;2023-03-24T01:30:50;11.77;;;3.13;;
24585;SDS011;12743;52.262;6.172;2023-03-24T01:33:25;7.35;;;2.75;;
24585;SDS011;12743;52.262;6.172;2023-03-24T01:35:52;8.73;;;2.80;;
24585;SDS011;12743;52.262;6.172;2023-03-24T01:38:19;10.13;;;2.93;;
24585;SDS011;12743;52.262;6.172;2023-03-24T01:40:46;7.28;;;3.10;;
24585;SDS011;12743;52.262;6.172;2023-03-24T01:43:18;8.13;;;3.13;;
24585;SDS011;12743;52.262;6.172;2023-03-24T01:45:53;6.60;;;3.30;;
24585;SDS011;12743;52.262;6.172;2023-03-24T01:54:02;7.35;;;2.95;;
24585;SDS011;12743;52.262;6.172;2023-03-24T01:56:31;7.97;;;2.92;;
24585;SDS011;12743;52.262;6.172;2023-03-24T01:59:04;7.88;;;2.60;;
24585;SDS011;12743;52.262;6.172;2023-03-24T02:01:51;5.13;;;2.53;;
24585;SDS011;12743;52.262;6.172;2023-03-24T02:04:40;7.70;;;2.60;;
24585;SDS011;12743;52.262;6.172;2023-03-24T02:10:08;9.13;;;3.30;;
24585;SDS011;12743;52.262;6.172;2023-03-24T02:12:39;7.90;;;2.92;;
24585;SDS011;12743;52.262;6.172;2023-03-24T02:15:08;8.68;;;3.42;;
24585;SDS011;12743;52.262;6.172;2023-03-24T02:20:23;8.60;;;3.35;;
24585;SDS011;12743;52.262;6.172;2023-03-24T02:23:20;6.45;;;3.15;;
24585;SDS011;12743;52.262;6.172;2023-03-24T02:38:00;6.38;;;2.85;;
24585;SDS011;12743;52.262;6.172;2023-03-24T02:43:16;6.47;;;3.00;;
24585;SDS011;12743;52.262;6.172;2023-03-24T02:54:15;6.20;;;2.70;;
24585;SDS011;12743;52.262;6.172;2023-03-24T02:57:11;7.72;;;2.50;;
24585;SDS011;12743;52.262;6.172;2023-03-24T03:03:23;5.68;;;2.58;;
24585;SDS011;12743;52.262;6.172;2023-03-24T03:06:31;6.18;;;3.00;;
24585;SDS011;12743;52.262;6.172;2023-03-24T03:09:03;5.00;;;2.58;;
24585;SDS011;12743;52.262;6.172;2023-03-24T03:11:43;5.85;;;2.70;;
24585;SDS011;12743;52.262;6.172;2023-03-24T03:14:18;6.60;;;2.80;;
24585;SDS011;12743;52.262;6.172;2023-03-24T03:16:56;8.32;;;2.30;;
24585;SDS011;12743;52.262;6.172;2023-03-24T03:22:38;7.00;;;2.90;;
24585;SDS011;12743;52.262;6.172;2023-03-24T03:25:15;5.10;;;1.33;;
24585;SDS011;12743;52.262;6.172;2023-03-24T03:27:48;6.00;;;1.37;;
24585;SDS011;12743;52.262;6.172;2023-03-24T03:30:23;4.28;;;1.33;;
24585;SDS011;12743;52.262;6.172;2023-03-24T03:32:56;5.38;;;1.25;;
24585;SDS011;12743;52.262;6.172;2023-03-24T03:35:33;6.07;;;0.90;;
24585;SDS011;12743;52.262;6.172;2023-03-24T03:38:06;4.80;;;1.50;;
24585;SDS011;12743;52.262;6.172;2023-03-24T03:40:51;3.73;;;1.03;;
24585;SDS011;12743;52.262;6.172;2023-03-24T03:43:26;6.10;;;1.35;;
24585;SDS011;12743;52.262;6.172;2023-03-24T03:45:54;3.25;;;1.02;;
24585;SDS011;12743;52.262;6.172;2023-03-24T03:48:27;4.25;;;1.33;;
24585;SDS011;12743;52.262;6.172;2023-03-24T03:50:55;4.07;;;1.27;;
24585;SDS011;12743;52.262;6.172;2023-03-24T03:56:39;3.42;;;1.00;;
24585;SDS011;12743;52.262;6.172;2023-03-24T03:59:28;2.95;;;1.00;;
24585;SDS011;12743;52.262;6.172;2023-03-24T04:02:22;7.00;;;1.00;;
24585;SDS011;12743;52.262;6.172;2023-03-24T04:05:23;3.95;;;0.60;;
24585;SDS011;12743;52.262;6.172;2023-03-24T04:08:16;3.63;;;0.80;;
24585;SDS011;12743;52.262;6.172;2023-03-24T04:10:59;4.75;;;0.70;;
24585;SDS011;12743;52.262;6.172;2023-03-24T04:20:34;3.70;;;0.70;;
24585;SDS011;12743;52.262;6.172;2023-03-24T04:23:13;3.27;;;0.40;;
24585;SDS011;12743;52.262;6.172;2023-03-24T04:31:36;4.72;;;0.40;;
24585;SDS011;12743;52.262;6.172;2023-03-24T04:34:15;5.78;;;0.55;;
24585;SDS011;12743;52.262;6.172;2023-03-24T04:36:53;6.30;;;0.50;;
24585;SDS011;12743;52.262;6.172;2023-03-24T04:39:41;5.18;;;0.57;;
24585;SDS011;12743;52.262;6.172;2023-03-24T04:42:18;6.50;;;0.50;;
24585;SDS011;12743;52.262;6.172;2023-03-24T04:44:49;3.83;;;0.50;;
24585;SDS011;12743;52.262;6.172;2023-03-24T04:47:21;6.28;;;0.80;;
24585;SDS011;12743;52.262;6.172;2023-03-24T04:50:08;4.37;;;0.70;;
24585;SDS011;12743;52.262;6.172;2023-03-24T04:52:38;9.98;;;0.93;;
24585;SDS011;12743;52.262;6.172;2023-03-24T04:58:27;6.82;;;1.20;;
24585;SDS011;12743;52.262;6.172;2023-03-24T05:00:55;8.02;;;1.00;;
24585;SDS011;12743;52.262;6.172;2023-03-24T05:03:28;8.93;;;1.10;;
24585;SDS011;12743;52.262;6.172;2023-03-24T05:05:57;7.88;;;0.85;;
24585;SDS011;12743;52.262;6.172;2023-03-24T05:08:25;6.68;;;1.20;;
24585;SDS011;12743;52.262;6.172;2023-03-24T05:10:51;9.73;;;1.73;;
24585;SDS011;12743;52.262;6.172;2023-03-24T05:13:18;8.27;;;1.10;;
24585;SDS011;12743;52.262;6.172;2023-03-24T05:15:51;8.20;;;1.43;;
24585;SDS011;12743;52.262;6.172;2023-03-24T05:18:33;8.02;;;1.63;;
24585;SDS011;12743;52.262;6.172;2023-03-24T05:21:01;13.93;;;1.85;;
24585;SDS011;12743;52.262;6.172;2023-03-24T05:23:27;8.93;;;2.28;;
24585;SDS011;12743;52.262;6.172;2023-03-24T05:25:57;14.23;;;2.28;;
24585;SDS011;12743;52.262;6.172;2023-03-24T05:28:28;7.97;;;1.43;;
24585;SDS011;12743;52.262;6.172;2023-03-24T05:30:56;8.50;;;1.60;;
24585;SDS011;12743;52.262;6.172;2023-03-24T05:33:39;12.23;;;1.60;;
24585;SDS011;12743;52.262;6.172;2023-03-24T05:36:10;10.13;;;1.90;;
24585;SDS011;12743;52.262;6.172;2023-03-24T05:38:39;11.63;;;1.58;;
24585;SDS011;12743;52.262;6.172;2023-03-24T05:41:06;9.53;;;2.37;;
24585;SDS011;12743;52.262;6.172;2023-03-24T05:43:37;12.05;;;2.00;;
24585;SDS011;12743;52.262;6.172;2023-03-24T05:46:08;10.05;;;2.13;;
24585;SDS011;12743;52.262;6.172;2023-03-24T05:48:35;11.02;;;1.73;;
24585;SDS011;12743;52.262;6.172;2023-03-24T05:51:09;8.35;;;1.55;;
24585;SDS011;12743;52.262;6.172;2023-03-24T05:53:36;13.40;;;1.73;;
24585;SDS011;12743;52.262;6.172;2023-03-24T05:56:32;11.65;;;2.40;;
24585;SDS011;12743;52.262;6.172;2023-03-24T05:58:59;13.65;;;1.90;;
24585;SDS011;12743;52.262;6.172;2023-03-24T06:01:49;14.68;;;2.20;;
24585;SDS011;12743;52.262;6.172;2023-03-24T06:04:24;14.07;;;1.55;;
24585;SDS011;12743;52.262;6.172;2023-03-24T06:07:01;14.40;;;1.97;;
24585;SDS011;12743;52.262;6.172;2023-03-24T06:09:33;13.43;;;1.98;;
24585;SDS011;12743;52.262;6.172;2023-03-24T06:12:05;15.82;;;2.15;;
24585;SDS011;12743;52.262;6.172;2023-03-24T06:14:35;12.50;;;1.58;;
24585;SDS011;12743;52.262;6.172;2023-03-24T06:17:07;15.93;;;1.98;;
24585;SDS011;12743;52.262;6.172;2023-03-24T06:19:34;14.67;;;1.97;;
24585;SDS011;12743;52.262;6.172;2023-03-24T06:22:25;14.30;;;1.40;;
24585;SDS011;12743;52.262;6.172;2023-03-24T06:24:52;13.35;;;1.30;;
24585;SDS011;12743;52.262;6.172;2023-03-24T06:27:19;13.88;;;1.40;;
24585;SDS011;12743;52.262;6.172;2023-03-24T06:29:52;18.40;;;1.45;;
24585;SDS011;12743;52.262;6.172;2023-03-24T06:32:18;17.63;;;2.47;;
24585;SDS011;12743;52.262;6.172;2023-03-24T06:34:46;14.40;;;1.50;;
24585;SDS011;12743;52.262;6.172;2023-03-24T06:37:38;12.75;;;1.40;;
24585;SDS011;12743;52.262;6.172;2023-03-24T06:40:08;22.35;;;2.50;;
24585;SDS011;12743;52.262;6.172;2023-03-24T06:42:46;13.00;;;1.88;;
24585;SDS011;12743;52.262;6.172;2023-03-24T06:45:15;14.93;;;1.40;;
24585;SDS011;12743;52.262;6.172;2023-03-24T06:47:44;15.23;;;1.90;;
24585;SDS011;12743;52.262;6.172;2023-03-24T06:50:11;14.02;;;1.90;;
24585;SDS011;12743;52.262;6.172;2023-03-24T06:52:38;14.15;;;2.25;;
24585;SDS011;12743;52.262;6.172;2023-03-24T06:55:05;15.77;;;1.92;;
24585;SDS011;12743;52.262;6.172;2023-03-24T06:57:33;18.17;;;3.10;;
24585;SDS011;12743;52.262;6.172;2023-03-24T07:00:19;16.15;;;2.20;;
24585;SDS011;12743;52.262;6.172;2023-03-24T07:02:59;15.30;;;2.35;;
24585;SDS011;12743;52.262;6.172;2023-03-24T07:05:28;10.40;;;1.58;;
24585;SDS011;12743;52.262;6.172;2023-03-24T07:07:55;16.33;;;2.63;;
24585;SDS011;12743;52.262;6.172;2023-03-24T07:10:37;15.10;;;2.47;;
24585;SDS011;12743;52.262;6.172;2023-03-24T07:13:08;13.70;;;2.97;;
24585;SDS011;12743;52.262;6.172;2023-03-24T07:15:37;15.90;;;3.13;;
24585;SDS011;12743;52.262;6.172;2023-03-24T07:18:03;15.43;;;3.20;;
24585;SDS011;12743;52.262;6.172;2023-03-24T07:20:36;17.25;;;2.83;;
24585;SDS011;12743;52.262;6.172;2023-03-24T07:23:10;15.45;;;2.53;;
24585;SDS011;12743;52.262;6.172;2023-03-24T07:25:40;16.67;;;2.60;;
24585;SDS011;12743;52.262;6.172;2023-03-24T07:28:15;16.77;;;3.27;;
24585;SDS011;12743;52.262;6.172;2023-03-24T07:30:43;16.40;;;2.70;;
24585;SDS011;12743;52.262;6.172;2023-03-24T07:33:10;17.75;;;2.85;;
24585;SDS011;12743;52.262;6.172;2023-03-24T07:35:39;14.57;;;2.50;;
24585;SDS011;12743;52.262;6.172;2023-03-24T07:38:07;12.35;;;2.88;;
24585;SDS011;12743;52.262;6.172;2023-03-24T07:40:35;14.83;;;2.47;;
24585;SDS011;12743;52.262;6.172;2023-03-24T07:43:03;15.85;;;2.83;;
24585;SDS011;12743;52.262;6.172;2023-03-24T07:45:59;15.20;;;2.55;;
24585;SDS011;12743;52.262;6.172;2023-03-24T07:48:27;15.30;;;2.58;;
24585;SDS011;12743;52.262;6.172;2023-03-24T07:50:54;14.20;;;2.47;;
24585;SDS011;12743;52.262;6.172;2023-03-24T07:53:47;15.53;;;3.03;;
24585;SDS011;12743;52.262;6.172;2023-03-24T07:56:23;12.77;;;2.05;;
24585;SDS011;12743;52.262;6.172;2023-03-24T07:58:53;10.38;;;2.22;;
24585;SDS011;12743;52.262;6.172;2023-03-24T08:01:31;11.70;;;2.30;;
24585;SDS011;12743;52.262;6.172;2023-03-24T08:04:05;17.63;;;2.15;;
24585;SDS011;12743;52.262;6.172;2023-03-24T08:06:54;15.50;;;2.40;;
24585;SDS011;12743;52.262;6.172;2023-03-24T08:09:22;14.27;;;2.30;;
24585;SDS011;12743;52.262;6.172;2023-03-24T08:11:50;12.90;;;2.17;;
24585;SDS011;12743;52.262;6.172;2023-03-24T08:14:16;13.88;;;2.20;;
24585;SDS011;12743;52.262;6.172;2023-03-24T08:16:43;11.23;;;2.03;;
24585;SDS011;12743;52.262;6.172;2023-03-24T08:19:11;13.83;;;2.07;;
24585;SDS011;12743;52.262;6.172;2023-03-24T08:21:38;14.27;;;2.05;;
24585;SDS011;12743;52.262;6.172;2023-03-24T08:24:05;15.45;;;2.38;;
24585;SDS011;12743;52.262;6.172;2023-03-24T08:26:32;14.95;;;2.30;;
24585;SDS011;12743;52.262;6.172;2023-03-24T08:29:01;14.95;;;2.05;;
24585;SDS011;12743;52.262;6.172;2023-03-24T08:31:34;18.90;;;2.90;;
24585;SDS011;12743;52.262;6.172;2023-03-24T08:34:02;11.00;;;1.77;;
24585;SDS011;12743;52.262;6.172;2023-03-24T08:36:29;13.15;;;2.00;;
24585;SDS011;12743;52.262;6.172;2023-03-24T08:38:57;15.27;;;2.88;;
24585;SDS011;12743;52.262;6.172;2023-03-24T08:41:25;12.32;;;2.17;;
24585;SDS011;12743;52.262;6.172;2023-03-24T08:43:55;12.33;;;2.20;;
24585;SDS011;12743;52.262;6.172;2023-03-24T08:46:22;11.52;;;1.95;;
24585;SDS011;12743;52.262;6.172;2023-03-24T08:48:49;13.52;;;1.85;;
24585;SDS011;12743;52.262;6.172;2023-03-24T08:51:16;10.07;;;2.05;;
24585;SDS011;12743;52.262;6.172;2023-03-24T08:53:43;15.40;;;1.73;;
24585;SDS011;12743;52.262;6.172;2023-03-24T08:56:10;11.50;;;1.27;;
24585;SDS011;12743;52.262;6.172;2023-03-24T08:58:37;10.68;;;1.65;;
24585;SDS011;12743;52.262;6.172;2023-03-24T09:01:03;11.77;;;1.65;;
24585;SDS011;12743;52.262;6.172;2023-03-24T09:03:30;14.15;;;1.58;;
24585;SDS011;12743;52.262;6.172;2023-03-24T09:05:57;13.30;;;2.00;;
24585;SDS011;12743;52.262;6.172;2023-03-24T09:08:25;10.77;;;1.27;;
24585;SDS011;12743;52.262;6.172;2023-03-24T09:10:52;12.55;;;1.75;;
24585;SDS011;12743;52.262;6.172;2023-03-24T09:13:19;13.50;;;1.85;;
24585;SDS011;12743;52.262;6.172;2023-03-24T09:15:51;12.93;;;1.40;;
24585;SDS011;12743;52.262;6.172;2023-03-24T09:18:19;12.43;;;1.70;;
24585;SDS011;12743;52.262;6.172;2023-03-24T09:20:47;11.47;;;2.00;;
24585;SDS011;12743;52.262;6.172;2023-03-24T09:23:15;10.63;;;1.65;;
24585;SDS011;12743;52.262;6.172;2023-03-24T09:25:42;13.65;;;1.92;;
24585;SDS011;12743;52.262;6.172;2023-03-24T09:28:09;10.60;;;1.35;;
24585;SDS011;12743;52.262;6.172;2023-03-24T09:30:36;13.82;;;2.20;;
24585;SDS011;12743;52.262;6.172;2023-03-24T09:33:03;9.43;;;1.43;;
24585;SDS011;12743;52.262;6.172;2023-03-24T09:35:30;11.68;;;1.35;;
24585;SDS011;12743;52.262;6.172;2023-03-24T09:37:57;10.27;;;1.33;;
24585;SDS011;12743;52.262;6.172;2023-03-24T09:40:25;12.55;;;1.45;;
24585;SDS011;12743;52.262;6.172;2023-03-24T09:43:02;11.63;;;1.23;;
24585;SDS011;12743;52.262;6.172;2023-03-24T09:45:35;10.70;;;1.23;;
24585;SDS011;12743;52.262;6.172;2023-03-24T09:48:07;10.57;;;1.33;;
24585;SDS011;12743;52.262;6.172;2023-03-24T09:50:48;13.75;;;1.70;;
24585;SDS011;12743;52.262;6.172;2023-03-24T09:56:20;11.43;;;1.50;;
24585;SDS011;12743;52.262;6.172;2023-03-24T09:58:49;11.87;;;1.27;;
24585;SDS011;12743;52.262;6.172;2023-03-24T10:01:26;14.23;;;1.70;;
24585;SDS011;12743;52.262;6.172;2023-03-24T10:03:56;8.73;;;1.27;;
24585;SDS011;12743;52.262;6.172;2023-03-24T10:09:19;10.70;;;1.58;;
24585;SDS011;12743;52.262;6.172;2023-03-24T10:17:40;11.48;;;2.33;;
24585;SDS011;12743;52.262;6.172;2023-03-24T10:20:29;13.23;;;1.85;;
24585;SDS011;12743;52.262;6.172;2023-03-24T10:25:53;11.80;;;1.73;;
24585;SDS011;12743;52.262;6.172;2023-03-24T10:28:27;12.10;;;1.40;;
24585;SDS011;12743;52.262;6.172;2023-03-24T10:31:06;14.38;;;1.20;;
24585;SDS011;12743;52.262;6.172;2023-03-24T10:33:38;13.88;;;1.58;;
24585;SDS011;12743;52.262;6.172;2023-03-24T10:36:08;9.10;;;1.23;;
24585;SDS011;12743;52.262;6.172;2023-03-24T10:38:38;8.23;;;0.90;;
24585;SDS011;12743;52.262;6.172;2023-03-24T10:41:04;10.48;;;1.40;;
24585;SDS011;12743;52.262;6.172;2023-03-24T10:43:31;10.40;;;1.27;;
24585;SDS011;12743;52.262;6.172;2023-03-24T10:45:58;10.50;;;1.08;;
24585;SDS011;12743;52.262;6.172;2023-03-24T10:48:44;10.45;;;1.35;;
24585;SDS011;12743;52.262;6.172;2023-03-24T10:51:13;6.83;;;0.93;;
24585;SDS011;12743;52.262;6.172;2023-03-24T10:53:45;10.65;;;1.08;;
24585;SDS011;12743;52.262;6.172;2023-03-24T10:56:15;8.18;;;0.68;;
24585;SDS011;12743;52.262;6.172;2023-03-24T10:59:02;5.68;;;0.80;;
24585;SDS011;12743;52.262;6.172;2023-03-24T11:01:44;7.40;;;1.15;;
24585;SDS011;12743;52.262;6.172;2023-03-24T11:04:13;8.53;;;0.93;;
24585;SDS011;12743;52.262;6.172;2023-03-24T11:06:52;8.85;;;0.90;;
24585;SDS011;12743;52.262;6.172;2023-03-24T11:09:37;8.40;;;0.95;;
24585;SDS011;12743;52.262;6.172;2023-03-24T11:12:20;8.13;;;1.15;;
24585;SDS011;12743;52.262;6.172;2023-03-24T11:14:50;10.15;;;0.98;;
24585;SDS011;12743;52.262;6.172;2023-03-24T11:17:19;9.30;;;1.10;;
24585;SDS011;12743;52.262;6.172;2023-03-24T11:19:56;6.07;;;0.82;;
24585;SDS011;12743;52.262;6.172;2023-03-24T11:22:23;8.32;;;0.90;;
24585;SDS011;12743;52.262;6.172;2023-03-24T11:24:52;9.43;;;1.30;;
24585;SDS011;12743;52.262;6.172;2023-03-24T11:27:21;8.18;;;1.05;;
24585;SDS011;12743;52.262;6.172;2023-03-24T11:29:50;7.07;;;0.93;;
24585;SDS011;12743;52.262;6.172;2023-03-24T11:32:25;8.57;;;1.23;;
24585;SDS011;12743;52.262;6.172;2023-03-24T11:35:05;7.32;;;1.20;;
24585;SDS011;12743;52.262;6.172;2023-03-24T11:37:37;8.18;;;1.20;;
24585;SDS011;12743;52.262;6.172;2023-03-24T11:42:57;9.20;;;1.60;;
24585;SDS011;12743;52.262;6.172;2023-03-24T11:45:38;9.18;;;1.67;;
24585;SDS011;12743;52.262;6.172;2023-03-24T11:50:47;14.88;;;2.08;;
24585;SDS011;12743;52.262;6.172;2023-03-24T11:53:16;12.27;;;1.85;;
24585;SDS011;12743;52.262;6.172;2023-03-24T11:58:41;9.82;;;1.80;;
24585;SDS011;12743;52.262;6.172;2023-03-24T12:09:07;9.70;;;1.93;;
24585;SDS011;12743;52.262;6.172;2023-03-24T12:14:15;10.20;;;1.55;;
24585;SDS011;12743;52.262;6.172;2023-03-24T12:16:59;7.55;;;1.35;;
24585;SDS011;12743;52.262;6.172;2023-03-24T12:32:54;9.30;;;1.73;;
24585;SDS011;12743;52.262;6.172;2023-03-24T12:38:24;7.28;;;1.20;;
24585;SDS011;12743;52.262;6.172;2023-03-24T12:49:49;8.00;;;1.20;;
24585;SDS011;12743;52.262;6.172;2023-03-24T12:52:45;6.35;;;0.80;;
24585;SDS011;12743;52.262;6.172;2023-03-24T12:55:47;6.95;;;0.77;;
24585;SDS011;12743;52.262;6.172;2023-03-24T13:06:58;4.50;;;1.10;;
24585;SDS011;12743;52.262;6.172;2023-03-24T13:09:37;8.98;;;0.93;;
24585;SDS011;12743;52.262;6.172;2023-03-24T13:17:32;9.27;;;1.10;;
24585;SDS011;12743;52.262;6.172;2023-03-24T13:20:04;9.30;;;1.00;;
24585;SDS011;12743;52.262;6.172;2023-03-24T13:22:38;8.30;;;1.00;;
24585;SDS011;12743;52.262;6.172;2023-03-24T13:25:21;7.80;;;1.05;;
24585;SDS011;12743;52.262;6.172;2023-03-24T13:27:53;6.97;;;1.02;;
24585;SDS011;12743;52.262;6.172;2023-03-24T13:30:37;7.33;;;1.10;;
24585;SDS011;12743;52.262;6.172;2023-03-24T13:33:26;5.55;;;0.80;;
24585;SDS011;12743;52.262;6.172;2023-03-24T13:35:59;8.18;;;1.23;;
24585;SDS011;12743;52.262;6.172;2023-03-24T13:38:51;5.82;;;0.75;;
24585;SDS011;12743;52.262;6.172;2023-03-24T13:41:23;7.43;;;0.88;;
24585;SDS011;12743;52.262;6.172;2023-03-24T13:49:39;6.43;;;0.73;;
24585;SDS011;12743;52.262;6.172;2023-03-24T13:52:19;5.53;;;0.70;;
24585;SDS011;12743;52.262;6.172;2023-03-24T13:54:51;8.65;;;0.98;;
24585;SDS011;12743;52.262;6.172;2023-03-24T13:57:23;9.30;;;1.20;;
24585;SDS011;12743;52.262;6.172;2023-03-24T14:02:50;7.10;;;1.15;;
24585;SDS011;12743;52.262;6.172;2023-03-24T14:07:49;6.25;;;0.88;;
24585;SDS011;12743;52.262;6.172;2023-03-24T14:21:03;5.35;;;0.57;;
24585;SDS011;12743;52.262;6.172;2023-03-24T14:26:11;6.20;;;0.85;;
24585;SDS011;12743;52.262;6.172;2023-03-24T14:28:40;7.55;;;0.80;;
24585;SDS011;12743;52.262;6.172;2023-03-24T14:36:36;9.13;;;1.33;;
24585;SDS011;12743;52.262;6.172;2023-03-24T14:48:24;7.65;;;0.90;;
24585;SDS011;12743;52.262;6.172;2023-03-24T14:51:00;8.17;;;1.03;;
24585;SDS011;12743;52.262;6.172;2023-03-24T14:53:33;6.80;;;1.20;;
24585;SDS011;12743;52.262;6.172;2023-03-24T14:56:05;10.60;;;1.00;;
24585;SDS011;12743;52.262;6.172;2023-03-24T14:58:35;5.97;;;1.05;;
24585;SDS011;12743;52.262;6.172;2023-03-24T15:01:07;6.57;;;1.13;;
24585;SDS011;12743;52.262;6.172;2023-03-24T15:06:48;7.88;;;0.80;;
24585;SDS011;12743;52.262;6.172;2023-03-24T15:09:15;5.10;;;0.65;;
24585;SDS011;12743;52.262;6.172;2023-03-24T15:11:43;5.47;;;0.70;;
24585;SDS011;12743;52.262;6.172;2023-03-24T15:14:22;7.60;;;0.52;;
24585;SDS011;12743;52.262;6.172;2023-03-24T15:16:53;5.90;;;0.60;;
24585;SDS011;12743;52.262;6.172;2023-03-24T15:19:40;5.38;;;0.80;;
24585;SDS011;12743;52.262;6.172;2023-03-24T15:22:10;4.50;;;0.50;;
24585;SDS011;12743;52.262;6.172;2023-03-24T15:24:46;3.65;;;0.38;;
24585;SDS011;12743;52.262;6.172;2023-03-24T15:27:24;3.58;;;0.30;;
24585;SDS011;12743;52.262;6.172;2023-03-24T15:30:00;6.53;;;0.40;;
24585;SDS011;12743;52.262;6.172;2023-03-24T15:32:28;3.85;;;0.47;;
24585;SDS011;12743;52.262;6.172;2023-03-24T15:35:04;2.25;;;0.30;;
24585;SDS011;12743;52.262;6.172;2023-03-24T15:37:37;3.45;;;0.30;;
24585;SDS011;12743;52.262;6.172;2023-03-24T15:40:54;4.10;;;0.93;;
24585;SDS011;12743;52.262;6.172;2023-03-24T15:42:58;3.40;;;0.30;;
24585;SDS011;12743;52.262;6.172;2023-03-24T15:45:36;3.50;;;0.22;;
24585;SDS011;12743;52.262;6.172;2023-03-24T15:48:13;2.55;;;0.20;;
24585;SDS011;12743;52.262;6.172;2023-03-24T15:50:57;5.28;;;0.52;;
24585;SDS011;12743;52.262;6.172;2023-03-24T15:53:29;4.45;;;0.75;;
24585;SDS011;12743;52.262;6.172;2023-03-24T15:58:44;6.75;;;0.50;;
24585;SDS011;12743;52.262;6.172;2023-03-24T16:01:17;3.28;;;0.57;;
24585;SDS011;12743;52.262;6.172;2023-03-24T16:04:04;4.25;;;0.40;;
24585;SDS011;12743;52.262;6.172;2023-03-24T16:06:36;4.13;;;0.50;;
24585;SDS011;12743;52.262;6.172;2023-03-24T16:09:11;4.60;;;0.93;;
24585;SDS011;12743;52.262;6.172;2023-03-24T16:11:39;5.72;;;0.50;;
24585;SDS011;12743;52.262;6.172;2023-03-24T16:14:18;5.03;;;0.65;;
24585;SDS011;12743;52.262;6.172;2023-03-24T16:16:48;5.28;;;0.80;;
24585;SDS011;12743;52.262;6.172;2023-03-24T16:19:20;4.20;;;0.70;;
24585;SDS011;12743;52.262;6.172;2023-03-24T16:21:48;4.87;;;0.50;;
24585;SDS011;12743;52.262;6.172;2023-03-24T16:24:15;5.53;;;0.73;;
24585;SDS011;12743;52.262;6.172;2023-03-24T16:26:42;5.07;;;0.77;;
24585;SDS011;12743;52.262;6.172;2023-03-24T16:31:43;6.45;;;0.80;;
24585;SDS011;12743;52.262;6.172;2023-03-24T16:34:16;3.87;;;0.40;;
24585;SDS011;12743;52.262;6.172;2023-03-24T16:36:44;5.00;;;0.50;;
24585;SDS011;12743;52.262;6.172;2023-03-24T16:39:13;4.93;;;0.80;;
24585;SDS011;12743;52.262;6.172;2023-03-24T16:41:42;8.38;;;0.95;;
24585;SDS011;12743;52.262;6.172;2023-03-24T16:44:09;4.90;;;0.73;;
24585;SDS011;12743;52.262;6.172;2023-03-24T16:46:36;8.23;;;0.90;;
24585;SDS011;12743;52.262;6.172;2023-03-24T16:49:04;6.05;;;0.60;;
24585;SDS011;12743;52.262;6.172;2023-03-24T16:51:32;5.55;;;0.68;;
24585;SDS011;12743;52.262;6.172;2023-03-24T16:53:59;7.32;;;0.68;;
24585;SDS011;12743;52.262;6.172;2023-03-24T16:56:26;6.10;;;0.60;;
24585;SDS011;12743;52.262;6.172;2023-03-24T16:58:53;7.93;;;1.00;;
24585;SDS011;12743;52.262;6.172;2023-03-24T17:01:36;6.38;;;0.85;;
24585;SDS011;12743;52.262;6.172;2023-03-24T17:04:18;5.28;;;0.75;;
24585;SDS011;12743;52.262;6.172;2023-03-24T17:06:51;6.38;;;0.82;;
24585;SDS011;12743;52.262;6.172;2023-03-24T17:09:20;6.60;;;0.65;;
24585;SDS011;12743;52.262;6.172;2023-03-24T17:11:54;7.07;;;0.93;;
24585;SDS011;12743;52.262;6.172;2023-03-24T17:14:26;5.90;;;0.60;;
24585;SDS011;12743;52.262;6.172;2023-03-24T17:16:56;6.18;;;1.13;;
24585;SDS011;12743;52.262;6.172;2023-03-24T17:19:22;4.93;;;0.55;;
24585;SDS011;12743;52.262;6.172;2023-03-24T17:24:31;4.77;;;0.80;;
24585;SDS011;12743;52.262;6.172;2023-03-24T17:27:08;5.93;;;0.73;;
24585;SDS011;12743;52.262;6.172;2023-03-24T17:29:36;5.05;;;0.55;;
24585;SDS011;12743;52.262;6.172;2023-03-24T17:32:03;5.70;;;0.80;;
24585;SDS011;12743;52.262;6.172;2023-03-24T17:34:30;7.57;;;0.90;;
24585;SDS011;12743;52.262;6.172;2023-03-24T17:36:57;7.07;;;1.00;;
24585;SDS011;12743;52.262;6.172;2023-03-24T17:39:27;6.55;;;1.00;;
24585;SDS011;12743;52.262;6.172;2023-03-24T17:41:57;8.85;;;0.98;;
24585;SDS011;12743;52.262;6.172;2023-03-24T17:44:39;6.15;;;0.60;;
24585;SDS011;12743;52.262;6.172;2023-03-24T17:47:09;5.20;;;1.10;;
24585;SDS011;12743;52.262;6.172;2023-03-24T17:49:40;5.97;;;0.77;;
24585;SDS011;12743;52.262;6.172;2023-03-24T17:52:39;4.28;;;1.20;;
24585;SDS011;12743;52.262;6.172;2023-03-24T17:55:15;6.57;;;1.13;;
24585;SDS011;12743;52.262;6.172;2023-03-24T17:57:46;6.75;;;1.08;;
24585;SDS011;12743;52.262;6.172;2023-03-24T18:00:14;7.38;;;1.20;;
24585;SDS011;12743;52.262;6.172;2023-03-24T18:02:43;4.60;;;1.23;;
24585;SDS011;12743;52.262;6.172;2023-03-24T18:05:11;7.65;;;1.88;;
24585;SDS011;12743;52.262;6.172;2023-03-24T18:07:38;7.00;;;1.10;;
24585;SDS011;12743;52.262;6.172;2023-03-24T18:10:06;6.85;;;1.40;;
24585;SDS011;12743;52.262;6.172;2023-03-24T18:12:34;7.22;;;1.50;;
24585;SDS011;12743;52.262;6.172;2023-03-24T18:15:03;9.83;;;1.70;;
24585;SDS011;12743;52.262;6.172;2023-03-24T18:17:32;6.22;;;1.40;;
24585;SDS011;12743;52.262;6.172;2023-03-24T18:19:59;8.18;;;1.77;;